createdAt,value
2023-05-10T00:01:38.013Z,1.93
2023-05-10T00:04:40.665Z,2.10
2023-05-10T00:07:45.895Z,1.83
2023-05-10T00:10:48.697Z,2.20
2023-05-10T00:13:51.362Z,2.20
2023-05-10T00:16:54.184Z,1.90
2023-05-10T00:19:57.027Z,1.83
2023-05-10T00:22:59.519Z,2.08
2023-05-10T00:26:02.133Z,2.20
2023-05-10T00:29:04.775Z,1.92
2023-05-10T00:32:07.664Z,2.00
2023-05-10T00:35:10.816Z,2.05
2023-05-10T00:38:13.622Z,2.10
2023-05-10T00:41:17.713Z,2.03
2023-05-10T00:44:22.068Z,2.10
2023-05-10T00:47:24.993Z,2.00
2023-05-10T00:50:27.626Z,1.88
2023-05-10T00:53:33.409Z,2.00
2023-05-10T00:56:36.025Z,2.33
2023-05-10T00:59:38.819Z,2.05
2023-05-10T01:02:41.905Z,1.90
2023-05-10T01:05:44.693Z,2.10
2023-05-10T01:08:48.459Z,1.90
2023-05-10T01:11:51.690Z,2.10
2023-05-10T01:14:55.364Z,2.25
2023-05-10T01:17:58.037Z,1.90
2023-05-10T01:21:13.187Z,2.28
2023-05-10T01:24:21.529Z,2.10
2023-05-10T01:27:44.857Z,2.00
2023-05-10T01:31:06.749Z,2.08
2023-05-10T01:34:16.835Z,1.93
2023-05-10T01:37:29.892Z,2.00
2023-05-10T01:41:01.454Z,2.33
2023-05-10T01:44:17.887Z,2.00
2023-05-10T01:47:35.044Z,2.33
2023-05-10T01:50:40.918Z,2.03
2023-05-10T01:53:44.634Z,1.92
2023-05-10T01:56:51.764Z,2.08
2023-05-10T01:59:56.106Z,2.25
2023-05-10T02:03:01.299Z,2.00
2023-05-10T02:06:05.866Z,2.03
2023-05-10T02:09:10.163Z,2.03
2023-05-10T02:12:14.925Z,2.33
2023-05-10T02:15:23.335Z,2.10
2023-05-10T02:18:28.738Z,2.10
2023-05-10T02:21:33.874Z,2.20
2023-05-10T02:24:37.971Z,2.00
2023-05-10T02:27:43.735Z,2.03
2023-05-10T02:30:48.196Z,1.88
2023-05-10T02:33:51.748Z,2.25
2023-05-10T02:36:55.519Z,2.30
2023-05-10T02:39:59.481Z,2.08
2023-05-10T02:43:03.609Z,2.20
2023-05-10T02:46:07.476Z,2.25
2023-05-10T02:49:12.012Z,2.28
2023-05-10T02:52:21.215Z,2.40
2023-05-10T02:55:28.909Z,2.00
2023-05-10T02:58:31.897Z,2.40
2023-05-10T03:01:34.781Z,2.20
2023-05-10T03:04:37.504Z,1.90
2023-05-10T03:07:40.140Z,2.20
2023-05-10T03:10:55.063Z,2.20
2023-05-10T03:14:22.470Z,2.13
2023-05-10T03:17:37.839Z,1.92
2023-05-10T03:20:44.425Z,1.92
2023-05-10T03:23:59.015Z,2.37
2023-05-10T03:27:05.257Z,2.00
2023-05-10T03:30:11.606Z,2.47
2023-05-10T03:33:14.980Z,2.05
2023-05-10T03:36:20.851Z,2.33
2023-05-10T03:39:23.599Z,2.23
2023-05-10T03:42:30.600Z,2.10
2023-05-10T03:45:33.223Z,2.40
2023-05-10T03:48:36.071Z,2.65
2023-05-10T03:51:38.738Z,2.80
2023-05-10T03:54:41.502Z,2.70
2023-05-10T03:57:44.284Z,2.60
2023-05-10T04:00:47.478Z,2.85
2023-05-10T04:03:50.866Z,2.50
2023-05-10T04:06:53.638Z,2.42
2023-05-10T04:09:56.301Z,2.50
2023-05-10T04:12:59.205Z,2.55
2023-05-10T04:16:02.248Z,2.60
2023-05-10T04:19:05.155Z,2.60
2023-05-10T04:22:07.765Z,2.50
2023-05-10T04:25:10.791Z,2.50
2023-05-10T04:28:13.332Z,2.47
2023-05-10T04:31:15.917Z,2.60
2023-05-10T04:34:18.710Z,2.60
2023-05-10T04:37:22.477Z,2.50
2023-05-10T04:40:25.175Z,2.27
2023-05-10T04:43:27.882Z,2.58
2023-05-10T04:46:30.415Z,2.80
2023-05-10T04:49:33.365Z,2.50
2023-05-10T04:52:36.103Z,2.55
2023-05-10T04:55:39.364Z,2.10
2023-05-10T04:58:42.025Z,2.50
2023-05-10T05:01:44.573Z,2.60
2023-05-10T05:04:47.208Z,2.30
2023-05-10T05:07:50.016Z,2.35
2023-05-10T05:10:53.148Z,2.37
2023-05-10T05:13:55.624Z,2.38
2023-05-10T05:17:00.081Z,2.30
2023-05-10T05:20:03.407Z,2.42
2023-05-10T05:23:06.611Z,2.53
2023-05-10T05:26:20.426Z,2.07
2023-05-10T05:29:25.206Z,2.63
2023-05-10T05:32:27.849Z,2.47
2023-05-10T05:35:30.665Z,2.30
2023-05-10T05:38:33.749Z,2.40
2023-05-10T05:41:36.456Z,2.23
2023-05-10T05:44:39.380Z,2.67
2023-05-10T05:47:42.232Z,2.60
2023-05-10T05:50:45.182Z,2.22
2023-05-10T05:53:47.814Z,2.60
2023-05-10T05:56:50.382Z,2.10
2023-05-10T05:59:54.275Z,2.15
2023-05-10T06:02:57.072Z,2.20
2023-05-10T06:05:59.791Z,2.30
2023-05-10T06:09:02.831Z,2.45
2023-05-10T06:12:06.228Z,2.40
2023-05-10T06:15:09.708Z,2.20
2023-05-10T06:18:12.604Z,2.15
2023-05-10T06:21:29.811Z,2.20
2023-05-10T06:24:32.658Z,2.35
2023-05-10T06:27:36.001Z,2.20
2023-05-10T06:30:38.749Z,2.42
2023-05-10T06:33:42.649Z,2.53
2023-05-10T06:36:45.998Z,2.30
2023-05-10T06:39:49.728Z,2.38
2023-05-10T06:42:52.860Z,2.33
2023-05-10T06:46:05.488Z,2.42
2023-05-10T06:49:12.652Z,2.40
2023-05-10T06:52:15.920Z,2.45
2023-05-10T06:56:13.528Z,2.72
2023-05-10T06:59:33.790Z,2.40
2023-05-10T07:02:38.128Z,2.53
2023-05-10T07:05:40.841Z,2.40
2023-05-10T07:08:44.732Z,2.60
2023-05-10T07:11:49.881Z,2.38
2023-05-10T07:14:53.668Z,2.10
2023-05-10T07:17:58.141Z,2.40
2023-05-10T07:21:01.009Z,2.63
2023-05-10T07:24:03.942Z,2.17
2023-05-10T07:27:07.587Z,2.75
2023-05-10T07:30:11.178Z,1.93
2023-05-10T07:33:15.636Z,2.30
2023-05-10T07:36:18.446Z,2.22
2023-05-10T07:39:27.721Z,1.95
2023-05-10T07:42:32.069Z,2.47
2023-05-10T07:45:35.359Z,1.93
2023-05-10T07:48:38.833Z,2.58
2023-05-10T07:51:41.555Z,2.10
2023-05-10T07:54:44.414Z,2.38
2023-05-10T07:57:46.895Z,2.50
2023-05-10T08:00:52.707Z,2.17
2023-05-10T08:03:57.367Z,2.05
2023-05-10T08:07:28.800Z,2.35
2023-05-10T08:10:35.784Z,2.08
2023-05-10T08:13:38.975Z,2.00
2023-05-10T08:16:41.627Z,2.23
2023-05-10T08:19:44.235Z,2.22
2023-05-10T08:22:48.565Z,1.80
2023-05-10T08:25:52.631Z,2.00
2023-05-10T08:28:57.497Z,1.77
2023-05-10T08:32:00.081Z,2.17
2023-05-10T08:35:04.470Z,1.88
2023-05-10T08:38:07.202Z,2.00
2023-05-10T08:41:12.468Z,1.90
2023-05-10T08:44:16.117Z,2.20
2023-05-10T08:47:20.512Z,2.13
2023-05-10T08:50:25.148Z,1.70
2023-05-10T08:53:29.939Z,1.88
2023-05-10T08:56:40.168Z,2.03
2023-05-10T08:59:56.028Z,1.92
2023-05-10T09:03:02.439Z,1.50
2023-05-10T09:06:06.714Z,1.50
2023-05-10T09:09:10.146Z,1.77
2023-05-10T09:12:16.649Z,1.40
2023-05-10T09:15:21.625Z,1.60
2023-05-10T09:18:27.279Z,1.80
2023-05-10T09:21:32.271Z,1.38
2023-05-10T09:24:34.922Z,1.63
2023-05-10T09:27:38.920Z,1.50
2023-05-10T09:30:52.060Z,1.45
2023-05-10T09:33:55.735Z,1.23
2023-05-10T09:37:04.417Z,1.40
2023-05-10T09:40:12.109Z,1.45
2023-05-10T09:43:16.176Z,1.40
2023-05-10T09:46:22.234Z,1.50
2023-05-10T09:49:29.800Z,1.60
2023-05-10T09:52:52.053Z,1.30
2023-05-10T09:55:54.875Z,1.33
2023-05-10T09:59:16.901Z,1.10
2023-05-10T10:02:20.763Z,1.40
2023-05-10T10:05:35.152Z,1.20
2023-05-10T10:08:38.334Z,1.30
2023-05-10T10:11:42.566Z,1.30
2023-05-10T10:14:46.152Z,1.23
2023-05-10T10:17:50.143Z,1.20
2023-05-10T10:20:54.825Z,1.43
2023-05-10T10:23:57.561Z,1.10
2023-05-10T10:27:15.995Z,1.38
2023-05-10T10:30:39.610Z,1.35
2023-05-10T10:34:02.171Z,1.13
2023-05-10T10:37:08.291Z,1.30
2023-05-10T10:40:34.682Z,1.30
2023-05-10T10:43:38.961Z,1.40
2023-05-10T10:47:01.966Z,1.08
2023-05-10T10:50:09.091Z,1.20
2023-05-10T10:53:21.290Z,1.33
2023-05-10T10:56:25.383Z,1.30
2023-05-10T10:59:31.135Z,1.33
2023-05-10T11:02:55.351Z,1.50
2023-05-10T11:06:02.903Z,1.60
2023-05-10T11:09:13.404Z,1.30
2023-05-10T11:12:16.210Z,1.30
2023-05-10T11:15:21.622Z,1.52
2023-05-10T11:18:30.131Z,1.52
2023-05-10T11:21:33.807Z,1.35
2023-05-10T11:24:40.915Z,1.27
2023-05-10T11:27:44.322Z,1.40
2023-05-10T11:30:50.338Z,1.45
2023-05-10T11:33:55.150Z,1.48
2023-05-10T11:37:01.240Z,1.77
2023-05-10T11:40:11.027Z,1.50
2023-05-10T11:43:14.502Z,1.50
2023-05-10T11:46:21.152Z,1.60
2023-05-10T11:49:26.694Z,1.60
2023-05-10T11:52:30.075Z,1.67
2023-05-10T11:55:34.961Z,1.43
2023-05-10T11:58:39.791Z,1.23
2023-05-10T12:01:46.986Z,1.48
2023-05-10T12:05:43.134Z,1.55
2023-05-10T12:08:47.761Z,1.70
2023-05-10T12:11:50.560Z,1.40
2023-05-10T12:14:53.139Z,1.67
2023-05-10T12:17:56.035Z,1.70
2023-05-10T12:21:05.535Z,1.50
2023-05-10T12:24:08.914Z,1.50
2023-05-10T12:30:36.456Z,1.40
2023-05-10T12:33:46.398Z,1.60
2023-05-10T12:36:52.914Z,1.23
2023-05-10T12:39:55.449Z,1.70
2023-05-10T12:42:58.097Z,1.70
2023-05-10T12:46:09.222Z,1.55
2023-05-10T12:49:12.236Z,1.50
2023-05-10T12:52:14.748Z,1.50
2023-05-10T12:55:17.294Z,1.40
2023-05-10T12:58:34.490Z,1.67
2023-05-10T13:01:38.405Z,1.50
2023-05-10T13:04:41.554Z,1.73
2023-05-10T13:07:46.013Z,1.30
2023-05-10T13:10:51.783Z,1.52
2023-05-10T13:13:54.869Z,1.40
2023-05-10T13:16:57.477Z,1.38
2023-05-10T13:20:00.217Z,1.65
2023-05-10T13:23:03.679Z,1.70
2023-05-10T13:26:07.479Z,1.80
2023-05-10T13:29:11.074Z,1.30
2023-05-10T13:32:15.453Z,2.15
2023-05-10T13:35:18.932Z,1.35
2023-05-10T13:38:22.559Z,1.40
2023-05-10T13:41:25.250Z,1.63
2023-05-10T13:44:28.830Z,1.53
2023-05-10T13:47:32.008Z,1.48
2023-05-10T13:50:34.515Z,1.48
2023-05-10T13:53:37.851Z,2.30
2023-05-10T13:56:45.176Z,1.50
2023-05-10T13:59:48.069Z,1.40
2023-05-10T14:02:50.981Z,1.70
2023-05-10T14:05:53.895Z,1.50
2023-05-10T14:08:58.011Z,1.63
2023-05-10T14:12:00.617Z,1.55
2023-05-10T14:15:03.671Z,1.80
2023-05-10T14:18:06.262Z,1.75
2023-05-10T14:21:08.836Z,1.75
2023-05-10T14:24:11.614Z,1.42
2023-05-10T14:27:14.290Z,1.90
2023-05-10T14:30:17.035Z,1.60
2023-05-10T14:33:20.278Z,1.80
2023-05-10T14:36:23.588Z,2.28
2023-05-10T14:39:26.090Z,1.70
2023-05-10T14:42:29.610Z,2.00
2023-05-10T14:45:32.477Z,1.77
2023-05-10T14:48:35.028Z,1.92
2023-05-10T14:54:41.292Z,1.95
2023-05-10T14:57:45.098Z,2.20
2023-05-10T15:00:48.151Z,1.77
2023-05-10T15:03:51.684Z,2.00
2023-05-10T15:07:00.181Z,1.90
2023-05-10T15:10:03.408Z,2.17
2023-05-10T15:13:07.197Z,2.28
2023-05-10T15:16:10.216Z,1.90
2023-05-10T15:19:12.912Z,1.85
2023-05-10T15:22:15.553Z,2.00
2023-05-10T15:25:18.455Z,2.13
2023-05-10T15:28:21.120Z,1.75
2023-05-10T15:31:23.790Z,1.70
2023-05-10T15:34:26.378Z,1.63
2023-05-10T15:37:28.830Z,2.10
2023-05-10T15:40:31.606Z,1.85
2023-05-10T15:43:34.129Z,2.05
2023-05-10T15:46:38.860Z,2.00
2023-05-10T15:49:41.492Z,2.63
2023-05-10T15:52:44.025Z,2.65
2023-05-10T15:55:46.622Z,2.55
2023-05-10T15:58:49.470Z,2.20
2023-05-10T16:01:52.906Z,1.90
2023-05-10T16:04:55.655Z,2.30
2023-05-10T16:07:58.380Z,2.28
2023-05-10T16:11:01.176Z,2.00
2023-05-10T16:14:04.865Z,2.10
2023-05-10T16:17:08.566Z,2.33
2023-05-10T16:20:11.861Z,2.22
2023-05-10T16:23:15.298Z,2.33
2023-05-10T16:26:17.896Z,2.45
2023-05-10T16:29:20.609Z,2.35
2023-05-10T16:32:23.304Z,2.40
2023-05-10T16:35:26.394Z,2.40
2023-05-10T16:38:29.060Z,2.10
2023-05-10T16:41:34.905Z,2.30
2023-05-10T16:44:37.641Z,1.90
2023-05-10T16:47:41.002Z,2.10
2023-05-10T16:50:44.680Z,2.08
2023-05-10T16:53:47.239Z,2.20
2023-05-10T16:56:49.758Z,2.05
2023-05-10T16:59:53.596Z,2.10
2023-05-10T17:02:56.460Z,1.87
2023-05-10T17:05:59.136Z,2.05
2023-05-10T17:09:01.759Z,2.00
2023-05-10T17:12:04.448Z,2.05
2023-05-10T17:15:07.779Z,2.03
2023-05-10T17:18:11.259Z,1.90
2023-05-10T17:21:13.810Z,1.73
2023-05-10T17:24:16.347Z,1.70
2023-05-10T17:27:18.898Z,2.15
2023-05-10T17:30:26.338Z,2.03
2023-05-10T17:33:28.957Z,1.80
2023-05-10T17:36:31.506Z,2.00
2023-05-10T17:39:34.387Z,1.90
2023-05-10T17:42:36.865Z,2.00
2023-05-10T17:45:39.968Z,1.95
2023-05-10T17:48:42.586Z,2.13
2023-05-10T17:51:47.981Z,2.10
2023-05-10T17:54:50.536Z,2.22
2023-05-10T17:57:53.140Z,2.38
2023-05-10T18:00:57.651Z,2.10
2023-05-10T18:04:00.375Z,2.10
2023-05-10T18:07:03.215Z,1.85
2023-05-10T18:10:07.197Z,1.92
2023-05-10T18:13:09.871Z,1.98
2023-05-10T18:16:13.541Z,1.95
2023-05-10T18:19:16.570Z,1.97
2023-05-10T18:22:19.989Z,1.77
2023-05-10T18:25:24.461Z,2.00
2023-05-10T18:28:27.629Z,1.90
2023-05-10T18:31:31.407Z,2.00
2023-05-10T18:34:35.112Z,2.10
2023-05-10T18:37:39.217Z,1.70
2023-05-10T18:40:42.863Z,1.95
2023-05-10T18:43:46.488Z,1.98
2023-05-10T18:46:54.082Z,2.08
2023-05-10T18:49:57.975Z,1.70
2023-05-10T18:53:01.964Z,1.95
2023-05-10T18:56:05.868Z,1.88
2023-05-10T18:59:09.560Z,1.75
2023-05-10T19:02:13.981Z,1.92
2023-05-10T19:05:18.757Z,1.90
2023-05-10T19:08:23.179Z,2.10
2023-05-10T19:11:27.421Z,1.98
2023-05-10T19:14:32.376Z,2.17
2023-05-10T19:17:40.069Z,1.55
2023-05-10T19:20:46.014Z,2.10
2023-05-10T19:23:49.971Z,2.10
2023-05-10T19:26:56.104Z,2.17
2023-05-10T19:30:01.812Z,2.13
2023-05-10T19:33:06.610Z,1.90
2023-05-10T19:36:10.361Z,1.70
2023-05-10T19:39:14.345Z,2.00
2023-05-10T19:42:19.602Z,1.90
2023-05-10T19:45:23.381Z,1.58
2023-05-10T19:48:27.294Z,1.80
2023-05-10T19:51:31.641Z,2.57
2023-05-10T19:54:35.301Z,2.00
2023-05-10T19:57:40.602Z,1.70
2023-05-10T20:00:44.153Z,1.77
2023-05-10T20:03:47.640Z,1.90
2023-05-10T20:06:51.274Z,2.33
2023-05-10T20:09:56.124Z,1.77
2023-05-10T20:13:00.744Z,2.05
2023-05-10T20:16:05.243Z,1.92
2023-05-10T20:19:08.733Z,1.98
2023-05-10T20:22:11.714Z,1.83
2023-05-10T20:25:16.472Z,1.88
2023-05-10T20:28:24.286Z,2.10
2023-05-10T20:31:28.052Z,2.00
2023-05-10T20:34:31.510Z,1.90
2023-05-10T20:37:37.873Z,1.77
2023-05-10T20:40:41.740Z,2.17
2023-05-10T20:43:45.271Z,1.95
2023-05-10T20:46:48.968Z,1.80
2023-05-10T20:49:52.284Z,1.90
2023-05-10T20:52:55.023Z,1.90
2023-05-10T20:55:57.624Z,2.03
2023-05-10T20:59:00.190Z,1.90
2023-05-10T21:02:02.890Z,1.90
2023-05-10T21:05:06.080Z,1.60
2023-05-10T21:08:08.679Z,1.73
2023-05-10T21:11:11.197Z,1.60
2023-05-10T21:14:13.751Z,1.77
2023-05-10T21:17:18.074Z,1.88
2023-05-10T21:20:23.072Z,1.70
2023-05-10T21:23:25.609Z,1.70
2023-05-10T21:26:28.727Z,1.70
2023-05-10T21:29:31.357Z,1.88
2023-05-10T21:32:34.210Z,1.85
2023-05-10T21:35:39.467Z,1.70
2023-05-10T21:38:44.503Z,1.83
2023-05-10T21:41:47.236Z,1.70
2023-05-10T21:44:49.739Z,1.95
2023-05-10T21:47:52.472Z,1.90
2023-05-10T21:50:55.007Z,1.92
2023-05-10T21:53:57.698Z,1.90
2023-05-10T21:57:00.249Z,1.42
2023-05-10T22:00:03.711Z,2.10
2023-05-10T22:03:07.215Z,1.80
2023-05-10T22:06:09.842Z,1.75
2023-05-10T22:09:12.450Z,2.03
2023-05-10T22:12:14.911Z,1.92
2023-05-10T22:15:17.739Z,1.75
2023-05-10T22:18:20.392Z,1.80
2023-05-10T22:21:23.187Z,2.08
2023-05-10T22:24:25.749Z,1.80
2023-05-10T22:27:28.271Z,1.67
2023-05-10T22:30:33.059Z,1.80
2023-05-10T22:33:35.968Z,1.67
2023-05-10T22:36:38.531Z,1.98
2023-05-10T22:39:41.091Z,1.80
2023-05-10T22:42:43.783Z,1.77
2023-05-10T22:45:46.320Z,2.10
2023-05-10T22:48:48.888Z,1.60
2023-05-10T22:51:51.416Z,1.73
2023-05-10T22:54:54.145Z,2.03
2023-05-10T22:57:56.769Z,1.80
2023-05-10T23:00:59.303Z,1.85
2023-05-10T23:04:01.872Z,1.60
2023-05-10T23:07:04.434Z,2.08
2023-05-10T23:10:07.729Z,1.80
2023-05-10T23:13:10.239Z,1.70
2023-05-10T23:16:12.879Z,1.90
2023-05-10T23:19:15.473Z,1.80
2023-05-10T23:22:17.923Z,1.70
2023-05-10T23:25:20.591Z,2.00
2023-05-10T23:28:23.217Z,1.77
2023-05-10T23:31:25.747Z,1.80
2023-05-10T23:34:28.392Z,1.92
2023-05-10T23:37:30.923Z,1.70
2023-05-10T23:40:35.576Z,1.80
2023-05-10T23:43:38.116Z,1.83
2023-05-10T23:46:40.915Z,1.98
2023-05-10T23:49:43.646Z,1.58
2023-05-10T23:52:46.194Z,1.60
2023-05-10T23:55:48.828Z,2.10
2023-05-10T23:58:51.766Z,1.90
